Latest Weather Observations for Parkes Airport

IDN60801

Issued at 2:13 pm EDT Sunday 28 November 2021 (issued every 10 minutes, with the page automatically refreshed every 10 minutes)

About weather observations | Map of weather stations | Latest weather observations for NSW | Other Formats
Station Details ID: 065068 Name: PARKES AIRPORT AWS Lat: -33.13 Lon: 148.24 Height: 323.3 m
Data from the previous 72 hours. | See also: Recent months at Parkes Airport
Date/Time
EDT
Temp
°C
App
Temp
°C
Dew
Point
°C
Rel
Hum
%
Delta-T
°C
Wind Press
QNH
hPa
Press
MSL
hPa
Rain since
9am
mm
Dir  Spd
km/h
Gust
km/h
Spd
kts
Gust
kts
28/02:00pm 22.9 21.1 13.4 55 5.6 E 15 24 8 13 1018.1 1016.9 0.0
28/01:30pm 22.6 20.5 13.7 57 5.2 E 17 28 9 15 1018.5 1017.4 0.0
28/01:00pm 22.6 19.6 12.0 51 6.1 ENE 19 30 10 16 1018.8 1017.7 0.0
28/12:30pm 21.1 17.7 11.2 53 5.5 E 20 30 11 16 1019.2 1018.1 0.0
28/12:00pm 21.3 17.9 11.3 53 5.6 ESE 20 28 11 15 1019.5 1018.4 0.0
28/11:30am 20.4 17.0 11.3 56 5.1 E 20 32 11 17 1019.8 1018.7 0.0
28/11:00am 19.5 16.1 10.5 56 4.9 E 19 30 10 16 1020.2 1019.1 0.0
28/10:30am 18.7 15.0 10.3 58 4.6 ENE 20 26 11 14 1020.3 1019.2 0.0
28/10:00am 18.0 16.1 11.8 67 3.4 ESE 13 19 7 10 1020.4 1019.3 0.0
28/09:30am 16.3 13.4 11.0 71 2.9 ESE 17 26 9 14 1020.6 1019.4 0.0
28/09:00am 15.5 13.0 11.1 75 2.4 SE 15 22 8 12 1020.4 1019.3 1.0
28/08:30am 14.7 13.5 11.5 81 1.7 SE 9 13 5 7 1020.6 1019.4 1.0
28/08:00am 13.9 12.6 11.2 84 1.5 SE 9 13 5 7 1020.3 1019.2 1.0
28/07:30am 13.4 11.4 11.5 88 1.0 SE 13 19 7 10 1019.8 1018.7 1.0
28/07:00am 13.0 11.0 11.4 90 0.9 SSE 13 15 7 8 1019.7 1018.6 1.0
28/06:30am 12.4 10.3 11.1 92 0.7 S 13 13 7 7 1019.7 1018.6 1.0
28/06:00am 12.5 10.6 10.6 88 1.0 SSE 11 13 6 7 1019.3 1018.2 0.8
28/05:30am 13.2 11.4 9.6 79 1.9 ESE 9 13 5 7 1019.0 1017.9 0.4
28/05:00am 14.0 12.1 9.0 72 2.6 SE 9 13 5 7 1018.7 1017.6 0.2
28/04:30am 14.0 11.8 9.2 73 2.5 SE 11 15 6 8 1018.4 1017.3 0.2
28/04:00am 14.2 12.4 9.4 73 2.5 SE 9 11 5 6 1018.3 1017.2 0.2
28/03:30am 14.4 12.5 9.2 71 2.7 E 9 13 5 7 1018.2 1017.0 0.2
28/03:00am 14.3 12.5 9.3 72 2.6 ESE 9 13 5 7 1018.0 1016.8 0.2
28/02:30am 13.9 12.2 9.7 76 2.2 SE 9 11 5 6 1018.1 1016.9 0.2
28/02:00am 14.4 12.6 9.4 72 2.6 SE 9 15 5 8 1018.3 1017.2 0.2
28/01:30am 14.5 13.1 9.7 73 2.5 SSE 7 9 4 5 1018.4 1017.3 0.2
28/01:00am 14.5 12.8 9.7 73 2.5 SE 9 13 5 7 1018.7 1017.6 0.2
28/12:30am 14.6 12.0 9.4 71 2.7 SE 13 17 7 9 1018.8 1017.7 0.2
28/12:00am 15.1 12.5 9.5 69 2.9 ESE 13 17 7 9 1018.8 1017.7 0.2
 
Date/Time
EDT
Temp
°C
App
Temp
°C
Dew
Point
°C
Rel
Hum
%
Delta-T
°C
Wind Press
QNH
hPa
Press
MSL
hPa
Rain since
9am
mm
Dir  Spd
km/h
Gust
km/h
Spd
kts
Gust
kts
27/11:30pm 15.4 12.1 9.5 68 3.1 SE 17 22 9 12 1018.9 1017.8 0.2
27/11:00pm 15.6 12.3 9.7 68 3.1 SE 17 22 9 12 1019.1 1018.0 0.2
27/10:30pm 15.9 13.5 10.2 69 3.0 SE 13 20 7 11 1019.3 1018.2 0.2
27/10:00pm 16.3 14.0 10.6 69 3.1 SE 13 17 7 9 1019.2 1018.1 0.2
27/09:30pm 16.5 15.1 11.0 70 3.0 SE 9 15 5 8 1019.1 1018.0 0.2
27/09:00pm 16.8 14.3 10.9 68 3.2 SE 15 20 8 11 1018.7 1017.6 0.2
27/08:30pm 17.1 15.1 11.6 70 3.0 ESE 13 17 7 9 1018.3 1017.2 0.2
27/08:00pm 17.3 15.4 11.8 70 3.0 E 13 17 7 9 1017.8 1016.6 0.2
27/07:30pm 17.6 15.3 11.6 68 3.3 ENE 15 19 8 10 1017.5 1016.3 0.2
27/07:00pm 18.2 16.0 12.2 68 3.4 E 15 20 8 11 1016.9 1015.8 0.2
27/06:30pm 18.7 15.4 11.5 63 4.0 ESE 20 26 11 14 1016.6 1015.5 0.2
27/06:00pm 18.8 16.7 12.5 67 3.6 E 15 20 8 11 1016.4 1015.3 0.2
27/05:30pm 18.6 16.3 13.0 70 3.2 SE 17 24 9 13 1016.4 1015.3 0.2
27/05:00pm 19.2 17.2 12.7 66 3.7 E 15 20 8 11 1016.3 1015.2 0.2
27/04:30pm 19.0 16.0 12.7 67 3.6 ENE 20 26 11 14 1016.2 1015.1 0.2
27/04:00pm 19.2 17.2 12.7 66 3.7 ENE 15 20 8 11 1016.3 1015.2 0.2
27/03:30pm 18.6 15.7 13.0 70 3.2 ENE 20 28 11 15 1016.3 1015.2 0.2
27/03:00pm 19.3 17.1 13.3 68 3.5 ENE 17 24 9 13 1016.1 1015.0 0.2
27/02:30pm 18.2 15.5 12.9 71 3.0 E 19 28 10 15 1016.3 1015.2 0.2
27/02:00pm 17.6 15.7 14.1 80 2.0 ESE 17 24 9 13 1016.5 1015.4 0.0
27/01:30pm 17.8 14.8 13.7 77 2.4 SE 22 30 12 16 1016.5 1015.4 0.0
27/01:00pm 17.7 14.2 13.4 76 2.5 SSE 24 33 13 18 1016.6 1015.5 0.0
27/12:30pm 17.9 13.9 11.9 68 3.3 SE 24 32 13 17 1016.7 1015.6 0.0
27/12:00pm 17.4 13.4 11.7 69 3.2 SE 24 33 13 18 1016.8 1015.7 0.0
27/11:30am 16.7 11.7 10.8 68 3.2 SE 28 37 15 20 1017.0 1015.9 0.0
27/11:00am 16.5 11.8 10.6 68 3.2 SE 26 39 14 21 1016.9 1015.8 0.0
27/10:30am 16.4 11.0 10.9 70 3.0 SE 30 41 16 22 1017.0 1015.9 0.0
27/10:00am 15.9 10.9 10.9 72 2.7 SE 28 39 15 21 1016.9 1015.8 0.0
27/09:30am 15.6 12.2 11.4 76 2.3 ESE 20 30 11 16 1016.8 1015.7 0.0
27/09:00am 15.0 11.5 11.0 77 2.2 ESE 20 28 11 15 1016.7 1015.6 36.8
27/08:30am 14.5 11.2 11.7 83 1.5 SE 20 28 11 15 1016.3 1015.2 36.8
27/08:00am 14.0 10.7 11.7 86 1.3 SE 20 28 11 15 1015.8 1014.7 36.8
27/07:30am 14.2 10.6 10.6 79 1.9 ESE 20 32 11 17 1015.6 1014.5 36.4
27/07:00am 14.1 10.1 10.5 79 1.9 ESE 22 32 12 17 1015.2 1014.0 36.4
27/06:30am 14.1 10.6 10.3 78 2.0 ESE 19 30 10 16 1014.7 1013.5 36.4
27/06:00am 14.0 11.4 10.6 80 1.8 SE 15 22 8 12 1014.3 1013.1 36.4
27/05:30am 13.8 11.2 10.6 81 1.7 SE 15 24 8 13 1014.1 1012.9 36.4
27/05:00am 13.6 10.7 11.0 84 1.4 SE 17 24 9 13 1013.5 1012.4 36.4
27/04:30am 13.5 10.6 10.9 84 1.4 SE 17 24 9 13 1013.1 1012.0 36.4
27/04:00am 14.1 11.4 10.3 78 2.0 SE 15 20 8 11 1012.7 1011.5 36.2
27/03:30am 14.2 11.1 10.4 78 2.0 SE 17 28 9 15 1012.4 1011.2 36.2
27/03:00am 14.3 10.9 10.7 79 1.9 SE 19 26 10 14 1012.0 1010.8 36.2
27/02:30am 14.3 10.9 11.1 81 1.7 SE 20 30 11 16 1011.8 1010.6 36.2
27/02:00am 15.0 12.0 10.6 75 2.4 SE 17 24 9 13 1011.9 1010.7 36.2
27/01:30am 15.3 11.9 10.5 73 2.6 SE 19 26 10 14 1011.7 1010.5 36.2
27/01:00am 15.5 12.1 10.7 73 2.6 SE 19 24 10 13 1011.5 1010.3 36.2
27/12:30am 15.4 12.9 11.0 75 2.4 SE 15 24 8 13 1011.5 1010.3 36.2
27/12:00am 15.3 12.1 11.3 77 2.2 ESE 19 28 10 15 1011.4 1010.2 36.2
 
Date/Time
EDT
Temp
°C
App
Temp
°C
Dew
Point
°C
Rel
Hum
%
Delta-T
°C
Wind Press
QNH
hPa
Press
MSL
hPa
Rain since
9am
mm
Dir  Spd
km/h
Gust
km/h
Spd
kts
Gust
kts
26/11:30pm 15.6 11.9 11.4 76 2.3 ESE 22 37 12 20 1011.3 1010.1 36.2
26/11:00pm 15.9 12.3 11.7 76 2.3 ESE 22 28 12 15 1011.3 1010.1 36.2
26/10:30pm 16.0 12.4 12.0 77 2.2 ESE 22 33 12 18 1011.3 1010.1 36.2
26/10:00pm 15.9 12.0 12.1 78 2.1 ESE 24 32 13 17 1011.1 1009.9 36.2
26/09:30pm 15.9 12.1 12.5 80 1.9 ESE 24 41 13 22 1010.9 1009.7 36.2
26/09:00pm 16.1 12.4 12.8 81 1.9 ESE 24 37 13 20 1010.5 1009.4 36.2
26/08:30pm 16.0 12.5 13.5 85 1.4 ESE 24 39 13 21 1010.2 1009.1 36.2
26/08:00pm 16.2 12.5 14.0 87 1.3 ESE 26 37 14 20 1009.7 1008.5 36.2
26/07:30pm 16.3 14.1 14.8 91 0.9 SE 20 26 11 14 1009.3 1008.1 36.2
26/07:00pm 16.8 16.9 15.5 92 0.8 ESE 9 26 5 14 1009.2 1008.0 35.8
26/06:30pm 16.7 14.4 15.7 94 0.6 ESE 22 35 12 19 1008.5 1007.3 35.6
26/06:12pm 16.8 14.6 16.0 95 0.5 ESE 22 28 12 15 1008.1 1006.9 35.4
26/06:01pm 16.7 14.1 15.9 95 0.5 ESE 24 35 13 19 1008.0 1006.8 34.8
26/06:00pm 16.8 14.2 16.0 95 0.5 ESE 24 35 13 19 1008.0 1006.8 34.6
26/05:30pm 17.1 17.5 16.3 95 0.5 SE 9 19 5 10 1008.4 1007.2 33.0
26/05:00pm 17.2 15.1 16.2 94 0.6 ESE 22 32 12 17 1007.4 1006.2 32.0
26/04:30pm 17.3 15.6 16.2 93 0.7 E 20 32 11 17 1007.6 1006.4 30.0
26/04:00pm 17.4 15.0 16.3 93 0.7 ESE 24 32 13 17 1006.8 1005.6 29.0
26/03:30pm 17.9 16.9 16.6 92 0.8 E 17 24 9 13 1007.3 1006.1 28.4
26/03:24pm 17.9 17.4 16.9 94 0.6 E 15 22 8 12 1007.4 1006.2 28.4
26/03:17pm 17.5 16.2 16.7 95 0.5 SE 19 32 10 17 1007.4 1006.2 28.4
26/03:02pm 17.0 16.5 15.9 93 0.7 NNW 13 37 7 20 1007.8 1006.6 26.0
26/03:00pm 17.1 16.2 15.8 92 0.8 NNW 15 37 8 20 1008.0 1006.8 22.2
26/02:54pm 17.5 15.2 15.8 90 1.0 ESE 22 43 12 23 1007.6 1006.4 12.8
26/02:40pm 17.7 12.6 15.7 88 1.2 ESE 37 48 20 26 1006.0 1004.8 9.2
26/02:30pm 19.3 14.5 15.6 79 2.2 SE 35 44 19 24 1005.8 1004.6 9.0
26/02:16pm 20.9 17.3 17.3 80 2.2 SSE 32 43 17 23 1005.6 1004.4 9.0
26/02:00pm 22.5 22.1 19.3 82 2.1 SSW 20 30 11 16 1005.5 1004.3 9.0
26/01:30pm 22.0 24.2 19.2 84 1.8 SSE 6 20 3 11 1005.9 1004.7 9.0
26/01:00pm 20.8 24.0 18.9 89 1.2 CALM 0 0 0 0 1005.8 1004.6 9.0
26/12:30pm 20.2 20.5 18.0 87 1.4 N 13 17 7 9 1006.0 1004.8 8.8
26/12:00pm 19.9 20.5 18.7 93 0.8 N 13 19 7 10 1006.1 1004.9 8.6
26/11:44am 19.7 20.4 18.0 90 1.1 NW 11 17 6 9 1005.9 1004.7 8.6
26/11:30am 20.1 20.1 18.1 88 1.3 WNW 15 22 8 12 1006.1 1004.9 8.6
26/11:24am 20.1 20.5 18.1 88 1.3 WNW 13 19 7 10 1006.1 1004.9 8.6
26/11:10am 20.4 21.4 18.7 90 1.1 W 11 17 6 9 1006.1 1004.9 8.0
26/11:00am 20.1 20.9 18.2 89 1.2 WNW 11 17 6 9 1006.1 1004.9 7.8
26/10:37am 19.4 19.4 17.2 87 1.4 NW 13 26 7 14 1006.6 1005.4 4.0
26/10:30am 20.0 19.1 17.8 87 1.4 WNW 19 26 10 14 1006.4 1005.2 0.8
26/10:00am 23.0 23.2 17.7 72 3.3 N 13 19 7 10 1006.2 1005.0 0.0
26/09:30am 21.4 21.4 18.2 82 2.0 N 15 19 8 10 1006.1 1004.9 0.0
26/09:00am 21.3 21.7 18.9 86 1.5 N 15 20 8 11 1006.0 1004.8 19.4
26/08:30am 19.9 19.4 18.7 93 0.8 E 19 24 10 13 1004.8 1003.6 19.4
26/08:00am 18.5 16.5 16.5 88 1.2 ESE 22 28 12 15 1004.3 1003.0 18.8
26/07:30am 18.5 16.3 16.8 90 1.0 E 24 28 13 15 1004.5 1003.2 18.8
26/07:00am 17.5 16.7 17.2 98 0.2 NE 17 20 9 11 1004.8 1003.6 18.8
26/06:30am 17.2 16.0 17.0 99 0.1 ENE 19 24 10 13 1004.7 1003.4 18.8
26/06:00am 17.1 16.2 16.9 99 0.1 ENE 17 24 9 13 1005.1 1003.9 18.8
26/05:30am 17.2 17.9 17.0 99 0.1 NE 9 17 5 9 1005.8 1004.6 18.6
26/05:00am 17.2 17.9 17.0 99 0.1 NNE 9 13 5 7 1006.3 1005.1 17.8
26/04:30am 17.4 17.4 17.2 99 0.1 NE 13 20 7 11 1006.0 1004.8 16.8
26/04:00am 17.4 17.4 17.2 99 0.1 N 13 19 7 10 1006.0 1004.8 15.6
26/03:30am 17.4 17.8 17.2 99 0.1 N 11 13 6 7 1006.0 1004.8 15.4
26/03:00am 17.6 18.0 17.3 98 0.2 ENE 11 13 6 7 1006.0 1004.8 14.8
26/02:30am 17.9 17.9 17.1 95 0.5 N 13 19 7 10 1006.1 1004.9 13.4
26/02:00am 19.3 20.4 18.1 93 0.8 NE 9 15 5 8 1005.8 1004.6 11.6
26/01:30am 19.4 21.8 18.9 97 0.3 WNW 4 9 2 5 1006.4 1005.2 11.0
26/01:00am 19.4 22.2 18.9 97 0.3 WSW 2 9 1 5 1006.0 1004.8 10.8
26/12:30am 19.4 20.3 19.2 99 0.1 SW 13 17 7 9 1005.9 1004.7 10.8
26/12:00am 19.6 21.1 18.9 96 0.4 NE 9 15 5 8 1005.6 1004.4 10.8
 
Date/Time
EDT
Temp
°C
App
Temp
°C
Dew
Point
°C
Rel
Hum
%
Delta-T
°C
Wind Press
QNH
hPa
Press
MSL
hPa
Rain since
9am
mm
Dir  Spd
km/h
Gust
km/h
Spd
kts
Gust
kts
25/11:30pm 19.1 20.2 18.8 98 0.2 NE 11 15 6 8 1005.9 1004.7 10.8
25/11:00pm 19.3 20.7 18.6 96 0.4 N 9 11 5 6 1006.6 1005.4 10.8
25/10:30pm 20.3 23.0 19.5 95 0.5 E 4 7 2 4 1006.7 1005.5 10.8
25/10:00pm 20.2 21.9 19.4 95 0.5 NNE 9 11 5 6 1007.1 1005.9 10.8
25/09:30pm 20.3 22.8 19.0 92 0.8 ENE 4 7 2 4 1006.7 1005.5 10.8
25/09:00pm 20.9 22.8 19.0 89 1.2 N 7 9 4 5 1006.4 1005.2 10.8
25/08:30pm 21.3 22.7 18.7 85 1.7 NNE 9 13 5 7 1006.2 1005.0 10.8
25/08:00pm 23.0 25.7 19.4 80 2.3 NE 4 7 2 4 1005.9 1004.7 10.8
25/07:30pm 23.5 25.6 19.4 78 2.7 NNE 7 9 4 5 1006.0 1004.8 10.8
25/07:00pm 24.1 27.4 19.0 73 3.3 CALM 0 0 0 0 1006.0 1004.8 10.8
25/06:30pm 23.9 26.9 18.5 72 3.5 CALM 0 0 0 0 1005.7 1004.5 10.8
25/06:00pm 24.4 26.1 18.6 70 3.7 W 7 9 4 5 1005.4 1004.2 10.8
25/05:30pm 24.5 26.0 18.9 71 3.6 WNW 9 15 5 8 1005.3 1004.1 10.8
25/05:00pm 24.7 25.3 18.6 69 3.9 NNW 13 19 7 10 1006.1 1004.9 10.8
25/04:30pm 24.3 24.7 18.2 68 3.9 NNW 13 24 7 13 1005.8 1004.6 10.8
25/04:00pm 24.1 25.1 19.4 75 3.1 N 13 20 7 11 1006.3 1005.1 10.8
25/03:34pm 22.9 22.5 19.3 80 2.3 NNE 20 26 11 14 1006.6 1005.4 10.8
25/03:30pm 23.0 22.9 19.6 81 2.2 NNE 19 26 10 14 1006.6 1005.4 10.8
25/03:00pm 22.3 23.3 20.2 88 1.4 NE 15 24 8 13 1006.7 1005.5 10.8
25/02:57pm 22.2 23.7 20.5 90 1.1 NE 13 22 7 12 1006.9 1005.7 10.8
25/02:30pm 20.2 22.1 19.7 97 0.3 ENE 9 13 5 7 1007.3 1006.1 10.8
25/02:15pm 19.5 21.5 19.2 98 0.2 E 7 11 4 6 1007.6 1006.4 10.8

Other formats

Comma delimited format used in spreadsheet applications
http://www.bom.gov.au/fwo/IDN60801/IDN60801.95717.axf

JavaScript Object Notation format (JSON) in row-major order
http://www.bom.gov.au/fwo/IDN60801/IDN60801.95717.json

Data quality

Most of these data are generated automatically and are frequently updated. Quality checks on data are not normally performed. It is possible for incorrect values to appear. Refer to information at About Latest Weather Observations and please check the disclaimer before using these data.